Latest Weather Observations for Ivanhoe Airport

IDN60801

Issued at 11:35 pm EST Wednesday 16 April 2014 (issued every 30 minutes, with the page automatically refreshed every 10 minutes)

About weather observations | Map of weather stations | Latest weather observations for NSW | Other Formats
Station Details ID: 049000 Name: IVANHOE AERODROME AWS Lat: -32.88 Lon: 144.31 Height: 100.0 m
Data from the previous 72 hours. | See also: Recent months at Ivanhoe Airport
Date/Time
EST
Temp
°C
App
Temp
°C
Dew
Point
Rel
Hum
%
Delta-T
°C
Wind Press
QNH
hPa
Press
MSL
hPa
Rain
since 9 am
mm
Dir
 
Spd
km/h
Gust
km/h
Spd
kts
Gust
kts
16/11:30pm 14.5 13.6 9.1 70 2.8 ESE 4 7 2 4 1019.4 - 0.0
16/11:00pm 13.9 12.5 8.9 72 2.5 ESE 6 7 3 4 1019.7 1019.4 0.0
16/10:30pm 14.3 14.1 8.9 70 2.8 CALM 0 0 0 0 1019.6 - 0.0
16/10:00pm 15.9 14.0 9.1 64 3.5 ESE 9 11 5 6 1019.5 1019.2 0.0
16/09:30pm 17.2 15.3 8.9 58 4.3 SSE 9 11 5 6 1019.7 - 0.0
16/09:00pm 17.4 15.5 9.1 58 4.3 SSE 9 9 5 5 1019.6 1019.3 0.0
16/08:30pm 17.7 16.4 9.1 57 4.5 SSE 6 7 3 4 1019.3 - 0.0
16/08:00pm 17.7 16.1 8.8 56 4.6 S 7 9 4 5 1019.0 1018.7 0.0
16/07:30pm 17.5 15.9 8.9 57 4.5 S 7 9 4 5 1018.9 - 0.0
16/07:00pm 18.7 17.1 8.7 52 5.2 SSW 7 9 4 5 1018.7 1018.4 0.0
16/06:30pm 19.7 17.8 9.0 50 5.7 SW 9 11 5 6 1018.3 - 0.0
16/06:00pm 21.5 19.5 8.7 44 6.8 SW 9 13 5 7 1018.1 1017.8 0.0
16/05:30pm 23.3 21.1 9.3 41 7.6 SW 11 17 6 9 1017.6 - 0.0
16/05:00pm 24.6 22.6 8.5 36 8.7 SW 9 15 5 8 1017.3 1017.0 0.0
16/04:30pm 24.5 23.6 7.6 34 8.9 SW 2 7 1 4 1017.4 - 0.0
16/04:00pm 24.8 23.6 7.9 34 9.0 SSW 4 15 2 8 1017.4 1017.1 0.0
16/03:30pm 24.9 23.3 8.0 34 9.0 NW 6 13 3 7 1017.7 - 0.0
16/03:00pm 24.3 22.5 7.9 35 8.7 SSE 7 13 4 7 1017.8 1017.5 0.0
16/02:30pm 24.8 23.6 7.9 34 9.0 NW 4 11 2 6 1017.9 - 0.0
16/02:00pm 24.0 21.8 8.0 36 8.5 SSW 9 15 5 8 1017.9 1017.6 0.0
16/01:30pm 23.9 22.4 8.3 37 8.3 NE 6 11 3 6 1018.1 - 0.0
16/01:00pm 23.3 21.7 8.2 38 8.0 E 6 11 3 6 1018.5 1018.2 0.0
16/12:30pm 23.9 22.6 9.1 39 8.0 ENE 6 13 3 7 1019.1 - 0.0
16/12:00pm 22.9 21.5 9.0 41 7.5 NNW 6 13 3 7 1019.7 1019.4 0.0
16/11:30am 22.3 20.7 8.8 42 7.2 NW 7 13 4 7 1020.1 - 0.0
16/11:00am 22.2 20.2 10.0 46 6.6 NNE 11 19 6 10 1020.2 1020.0 0.0
16/10:30am 21.2 20.0 9.4 47 6.3 N 6 11 3 6 1020.3 - 0.0
16/10:00am 19.5 19.6 10.2 55 5.0 CALM 0 0 0 0 1020.7 1020.5 0.0
16/09:30am 19.1 19.6 11.7 62 4.1 CALM 0 0 0 0 1020.4 - 0.0
16/09:00am 17.0 17.4 11.3 69 3.1 CALM 0 0 0 0 1020.7 1020.5 0.0
16/08:30am 14.6 15.0 11.2 80 1.8 CALM 0 0 0 0 1020.7 - 0.0
16/08:00am 12.4 11.6 11.0 91 0.7 S 6 7 3 4 1020.5 1020.3 0.0
16/07:30am 10.7 9.8 10.5 99 0.1 SSW 6 6 3 3 1020.1 - 0.0
16/07:00am 9.3 7.8 9.0 98 0.1 SSW 7 9 4 5 1020.0 1019.8 0.0
16/06:30am 9.3 7.6 8.5 95 0.4 SSW 7 7 4 4 1019.7 - 0.0
16/06:00am 9.7 8.2 8.6 93 0.5 S 6 7 3 4 1019.3 1019.0 0.0
16/05:30am 9.9 8.3 8.7 92 0.6 S 7 7 4 4 1018.9 - 0.0
16/05:00am 10.1 8.4 8.4 89 0.8 S 7 9 4 5 1018.8 1018.5 0.0
16/04:30am 10.4 8.7 8.3 87 1.0 SSW 7 9 4 5 1018.7 - 0.0
16/04:00am 11.1 9.1 8.7 85 1.2 S 9 11 5 6 1018.6 1018.3 0.0
16/03:30am 10.7 8.6 8.3 85 1.2 SSW 9 9 5 5 1018.4 - 0.0
16/03:00am 11.0 8.8 8.0 82 1.5 SSW 9 11 5 6 1018.5 1018.2 0.0
16/02:30am 12.1 10.0 8.4 78 1.8 S 9 13 5 7 1018.4 - 0.0
16/02:00am 12.4 10.3 8.3 76 2.0 S 9 11 5 6 1018.5 1018.2 0.0
16/01:30am 12.3 9.8 8.2 76 2.0 SSW 11 13 6 7 1018.9 - 0.0
16/01:00am 12.6 10.5 8.3 75 2.1 S 9 11 5 6 1019.2 1018.9 0.0
16/12:30am 12.6 10.6 8.7 77 2.0 SSW 9 11 5 6 1019.4 - 0.0
16/12:00am 13.0 11.0 8.7 75 2.2 S 9 11 5 6 1019.5 1019.2 0.0
 
Date/Time
EST
Temp
°C
App
Temp
°C
Dew
Point
Rel
Hum
%
Delta-T
°C
Wind Press
QNH
hPa
Press
MSL
hPa
Rain
since 9 am
mm
Dir
 
Spd
km/h
Gust
km/h
Spd
kts
Gust
kts
15/11:30pm 13.0 11.1 8.9 76 2.1 SW 9 11 5 6 1019.9 - 0.0
15/11:00pm 13.6 11.7 9.1 74 2.3 SW 9 11 5 6 1020.0 1019.8 0.0
15/10:30pm 13.9 12.0 9.1 73 2.4 SW 9 11 5 6 1020.2 - 0.0
15/10:00pm 14.3 12.4 9.1 71 2.7 SSW 9 11 5 6 1019.9 1019.7 0.0
15/09:30pm 14.8 12.9 9.0 68 3.0 SSW 9 11 5 6 1019.8 - 0.0
15/09:00pm 15.4 13.6 9.3 67 3.1 SW 9 11 5 6 1019.8 1019.5 0.0
15/08:30pm 15.7 13.8 8.9 64 3.5 SW 9 9 5 5 1019.5 - 0.0
15/08:00pm 16.3 14.3 8.8 61 3.9 SW 9 9 5 5 1019.1 1018.8 0.0
15/07:30pm 16.9 14.9 8.8 59 4.2 SW 9 9 5 5 1018.9 - 0.0
15/07:00pm 17.5 15.4 8.1 54 4.8 SW 9 9 5 5 1018.9 1018.6 0.0
15/06:30pm 18.6 16.4 8.0 50 5.5 SSW 9 9 5 5 1018.8 - 0.0
15/06:00pm 20.2 18.1 8.2 46 6.2 S 9 13 5 7 1018.6 1018.3 0.0
15/05:30pm 21.5 18.1 7.7 41 7.2 S 15 20 8 11 1018.3 - 0.0
15/05:00pm 22.3 19.1 8.4 41 7.4 S 15 20 8 11 1018.1 1017.8 0.0
15/04:30pm 23.0 19.8 8.3 39 7.8 S 15 22 8 12 1018.1 - 0.0
15/04:00pm 23.2 19.5 8.1 38 8.0 SSE 17 22 9 12 1018.2 1017.9 0.0
15/03:30pm 23.1 19.8 8.0 38 8.0 S 15 24 8 13 1018.3 - 0.0
15/03:00pm 23.3 20.5 8.6 39 7.9 S 13 22 7 12 1018.5 1018.2 0.0
15/02:30pm 22.9 19.3 8.2 39 7.8 S 17 26 9 14 1018.5 - 0.0
15/02:00pm 22.5 19.6 8.2 40 7.5 SSE 13 20 7 11 1018.6 1018.3 0.0
15/01:30pm 23.0 20.0 9.4 42 7.4 S 15 20 8 11 1018.7 - 0.0
15/01:00pm 21.7 17.9 8.9 44 6.8 S 19 24 10 13 1019.0 1018.7 0.0
15/12:30pm 22.6 19.7 9.7 44 7.0 S 15 24 8 13 1019.5 - 0.0
15/12:00pm 21.7 18.2 8.9 44 6.8 SSE 17 24 9 13 1019.9 1019.7 0.0
15/11:30am 21.8 18.6 8.3 42 7.1 SSE 15 22 8 12 1020.2 - 0.0
15/11:00am 21.6 19.5 9.8 47 6.4 ESE 11 19 6 10 1020.4 1020.2 0.0
15/10:30am 20.9 18.4 9.8 49 6.0 SE 13 20 7 11 1020.6 - 0.0
15/10:00am 20.0 18.0 10.1 53 5.3 E 11 19 6 10 1020.6 1020.4 0.0
15/09:30am 18.7 17.2 10.5 59 4.4 E 9 13 5 7 1020.7 - 0.0
15/09:00am 16.9 15.3 10.1 64 3.6 ESE 9 13 5 7 1020.7 1020.5 0.0
15/08:30am 15.5 13.5 10.3 71 2.7 E 11 15 6 8 1020.6 - 0.0
15/08:00am 13.6 12.1 10.6 82 1.6 SE 9 13 5 7 1020.5 1020.3 0.0
15/07:30am 11.6 10.0 10.2 91 0.7 SSE 9 13 5 7 1020.1 - 0.0
15/07:00am 10.7 9.1 10.1 96 0.3 S 9 13 5 7 1019.8 1019.5 0.0
15/06:30am 10.9 9.2 10.0 94 0.5 S 9 11 5 6 1019.4 - 0.0
15/06:00am 11.2 9.6 10.3 94 0.5 S 9 13 5 7 1019.4 1019.1 0.0
15/05:30am 11.4 9.8 10.1 92 0.7 S 9 11 5 6 1019.2 - 0.0
15/05:00am 12.1 10.5 10.3 89 0.9 SSE 9 11 5 6 1018.9 1018.6 0.0
15/04:30am 12.4 10.5 10.6 89 0.9 SE 11 13 6 7 1018.7 - 0.0
15/04:00am 12.6 11.1 10.5 87 1.1 SSE 9 13 5 7 1018.7 1018.4 0.0
15/03:30am 12.9 11.5 10.8 87 1.1 SSE 9 13 5 7 1018.7 - 0.0
15/03:00am 12.9 10.7 10.8 87 1.1 SE 13 15 7 8 1018.8 1018.5 0.0
15/02:30am 13.3 11.8 10.7 84 1.4 SSE 9 13 5 7 1018.9 - 0.0
15/02:00am 13.7 11.9 10.9 83 1.5 SE 11 13 6 7 1019.0 1018.7 0.0
15/01:30am 13.6 11.8 10.8 83 1.5 SE 11 13 6 7 1019.0 - 0.0
15/01:00am 14.0 12.2 11.0 82 1.6 SE 11 13 6 7 1018.9 1018.6 0.0
15/12:30am 13.9 12.1 10.7 81 1.7 SE 11 13 6 7 1018.8 - 0.0
15/12:00am 14.4 12.5 10.6 78 2.0 SSE 11 13 6 7 1018.7 1018.4 0.0
 
Date/Time
EST
Temp
°C
App
Temp
°C
Dew
Point
Rel
Hum
%
Delta-T
°C
Wind Press
QNH
hPa
Press
MSL
hPa
Rain
since 9 am
mm
Dir
 
Spd
km/h
Gust
km/h
Spd
kts
Gust
kts
14/11:30pm 14.2 13.1 10.6 79 1.9 S 7 9 4 5 1018.8 - 0.0
14/11:00pm 14.3 12.8 10.5 78 2.0 SSW 9 11 5 6 1019.0 1018.7 0.0
14/10:30pm 14.8 12.9 10.6 76 2.2 SW 11 13 6 7 1019.1 - 0.0
14/10:00pm 15.9 14.3 10.2 69 3.0 SSE 9 11 5 6 1019.1 1018.8 0.0
14/09:30pm 16.7 14.7 10.3 66 3.4 SSE 11 13 6 7 1019.1 - 0.0
14/09:00pm 16.7 14.8 10.5 67 3.3 SSE 11 13 6 7 1019.0 1018.7 0.0
14/08:30pm 17.0 15.5 10.4 65 3.5 SSE 9 11 5 6 1018.8 - 0.0
14/08:00pm 17.6 16.0 10.2 62 3.9 SSE 9 11 5 6 1018.6 1018.3 0.0
14/07:30pm 18.2 16.2 10.3 60 4.2 S 11 15 6 8 1018.5 - 0.0
14/07:00pm 18.6 17.3 9.9 57 4.6 SSW 7 11 4 6 1018.3 1018.0 0.0
14/06:30pm 19.6 17.9 9.8 53 5.3 S 9 11 5 6 1017.9 - 0.0
14/06:00pm 20.9 19.1 9.5 48 6.1 S 9 11 5 6 1017.6 1017.3 0.0
14/05:30pm 22.5 19.5 9.3 43 7.1 S 15 19 8 10 1017.5 - 0.0
14/05:00pm 23.2 19.4 9.2 41 7.6 S 19 28 10 15 1017.3 1017.0 0.0
14/04:30pm 24.0 20.4 9.9 41 7.8 SSW 19 28 10 15 1017.1 - 0.0
14/04:00pm 23.8 20.0 9.8 41 7.7 S 20 28 11 15 1017.0 1016.7 0.0
14/03:30pm 23.9 21.8 11.2 44 7.1 SSW 13 24 7 13 1017.1 - 0.0
14/03:00pm 24.3 21.2 10.2 41 7.8 S 17 28 9 15 1017.1 1016.8 0.0
14/02:30pm 24.1 22.2 10.4 42 7.6 S 11 19 6 10 1017.1 - 0.0
14/02:00pm 24.3 21.0 9.5 39 8.1 S 17 28 9 15 1017.2 1016.9 0.0
14/01:30pm 23.2 20.5 10.3 44 7.1 SSW 15 22 8 12 1017.4 - 0.0
14/01:00pm 23.8 20.8 10.8 44 7.2 S 17 24 9 13 1017.7 1017.4 0.0
14/12:30pm 23.7 21.6 11.1 45 7.1 S 13 22 7 12 1018.1 - 0.0
14/12:00pm 23.5 21.5 11.5 47 6.8 S 13 22 7 12 1018.5 1018.2 0.0
14/11:30am 23.3 21.4 11.7 48 6.6 SSE 13 20 7 11 1019.0 - 0.0
14/11:00am 22.4 21.0 12.1 52 5.8 ESE 11 17 6 9 1019.3 1019.0 0.0
14/10:30am 22.0 21.0 13.4 58 5.0 ESE 11 17 6 9 1019.4 - 0.0
14/10:00am 20.1 19.7 13.1 64 4.0 SSE 7 13 4 7 1019.5 1019.2 0.0
14/09:30am 18.5 17.7 12.9 70 3.2 SSE 9 15 5 8 1019.5 - 0.0
14/09:00am 17.0 16.1 12.7 76 2.4 SSE 9 15 5 8 1019.3 1019.0 0.0
14/08:30am 15.7 14.9 12.8 83 1.6 SSE 9 13 5 7 1019.2 - 0.0
14/08:00am 14.7 14.3 14.2 97 0.3 SSE 9 13 5 7 1018.9 1018.6 0.0
14/07:30am 13.2 12.4 13.0 99 0.1 S 9 11 5 6 1018.6 - 0.0
14/07:00am 12.6 12.0 12.4 99 0.1 SSE 7 9 4 5 1018.2 1017.9 0.0
14/06:30am 12.5 11.5 12.3 99 0.1 S 9 11 5 6 1018.0 - 0.0
14/06:00am 12.8 11.8 12.3 97 0.3 SSE 9 9 5 5 1017.8 1017.5 0.0
14/05:30am 13.0 11.7 12.4 96 0.3 SSE 11 13 6 7 1017.6 - 0.0
14/05:00am 13.4 12.1 12.6 95 0.4 SSE 11 15 6 8 1017.5 1017.2 0.0
14/04:30am 13.4 12.1 12.5 94 0.5 SSE 11 13 6 7 1017.2 - 0.0
14/04:00am 13.3 12.7 12.2 93 0.6 SSE 7 9 4 5 1017.0 1016.7 0.0
14/03:30am 13.9 13.0 12.5 91 0.8 SSE 9 13 5 7 1016.8 - 0.0
14/03:00am 13.9 12.6 12.5 91 0.8 SSE 11 13 6 7 1016.9 1016.6 0.0
14/02:30am 13.8 12.5 12.4 91 0.8 SSE 11 13 6 7 1017.2 - 0.0
14/02:00am 13.7 12.6 11.9 89 1.0 S 9 13 5 7 1017.4 1017.1 0.0
14/01:30am 14.2 13.5 11.9 86 1.2 S 7 9 4 5 1017.4 - 0.0
14/01:00am 14.6 13.5 11.9 84 1.5 S 9 11 5 6 1017.2 1016.9 0.0
14/12:30am 14.9 13.7 11.7 81 1.7 S 9 11 5 6 1017.4 - 0.0
14/12:00am 15.2 13.8 12.1 82 1.7 S 11 13 6 7 1017.4 1017.1 0.0

Other Formats:

Comma delimited format used in spreadsheet applications
http://www.bom.gov.au/fwo/IDN60801/IDN60801.95697.axf

JavaScript Object Notation format (JSON) in row-major order
http://www.bom.gov.au/fwo/IDN60801/IDN60801.95697.json